createdAt,value
2023-05-01T13:56:50.942Z,100977.41
2023-05-01T13:59:17.166Z,100976.31
2023-05-01T14:01:43.403Z,100969.41
2023-05-01T14:04:09.697Z,100967.28
2023-05-01T14:06:36.014Z,100968.47
2023-05-01T14:09:02.309Z,100968.19
2023-05-01T14:11:28.521Z,100965.66
2023-05-01T14:13:54.728Z,100959.38
2023-05-01T14:16:21.035Z,100964.44
2023-05-01T14:18:47.344Z,100958.06
2023-05-01T14:21:13.616Z,100953.53
2023-05-01T14:23:39.869Z,100955.81
2023-05-01T14:26:06.173Z,100958.06
2023-05-01T14:28:32.465Z,100961.84
2023-05-01T14:30:58.697Z,100958.34
2023-05-01T14:33:24.965Z,100952.69
2023-05-01T14:35:51.230Z,100962.47
2023-05-01T14:38:17.497Z,100964.19
2023-05-01T14:40:43.701Z,100962.41
2023-05-01T14:43:09.926Z,100966.16
2023-05-01T14:45:36.175Z,100967.34
2023-05-01T14:48:02.509Z,100963.59
2023-05-01T14:50:28.825Z,100971.59
2023-05-01T14:52:55.157Z,100963.13
2023-05-01T14:55:21.402Z,100962.94
2023-05-01T14:57:47.696Z,100947.97
2023-05-01T15:00:13.952Z,100946.66
2023-05-01T15:02:40.219Z,100944.31
2023-05-01T15:05:06.621Z,100942.25
2023-05-01T15:07:32.884Z,100949.22
2023-05-01T15:09:59.180Z,100944.97
2023-05-01T15:12:25.462Z,100945.84
2023-05-01T15:14:51.748Z,100952.97
2023-05-01T15:17:17.980Z,100957.66
2023-05-01T15:19:44.268Z,100951.81
2023-05-01T15:22:10.519Z,100962.44
2023-05-01T15:24:36.784Z,100953.91
2023-05-01T15:27:03.057Z,100959.53
2023-05-01T15:29:29.435Z,100958.19
2023-05-01T15:32:08.218Z,100961.75
2023-05-01T15:34:37.391Z,100959.97
2023-05-01T15:37:03.644Z,100964.59
2023-05-01T15:39:29.858Z,100962.97
2023-05-01T15:41:56.111Z,100968.50
2023-05-01T15:44:22.377Z,100970.72
2023-05-01T15:46:48.732Z,100975.75
2023-05-01T15:49:15.124Z,100974.38
2023-05-01T15:51:41.364Z,100972.44
2023-05-01T15:54:07.558Z,100967.41
2023-05-01T15:56:33.815Z,100960.78
2023-05-01T15:59:00.075Z,100961.53
2023-05-01T16:01:26.486Z,100955.31
2023-05-01T16:03:52.862Z,100954.41
2023-05-01T16:06:19.404Z,100956.22
2023-05-01T16:08:45.699Z,100946.69
2023-05-01T16:11:11.972Z,100950.00
2023-05-01T16:13:38.256Z,100947.50
2023-05-01T16:16:04.578Z,100940.63
2023-05-01T16:18:30.781Z,100937.41
2023-05-01T16:20:57.053Z,100927.47
2023-05-01T16:23:23.333Z,100935.72
2023-05-01T16:25:49.613Z,100934.69
2023-05-01T16:28:15.886Z,100926.03
2023-05-01T16:30:42.113Z,100932.00
2023-05-01T16:33:08.417Z,100932.50
2023-05-01T16:35:34.684Z,100929.09
2023-05-01T16:38:00.906Z,100934.25
2023-05-01T16:40:27.151Z,100927.22
2023-05-01T16:42:53.453Z,100929.53
2023-05-01T16:45:19.769Z,100930.09
2023-05-01T16:47:46.218Z,100928.22
2023-05-01T16:50:14.815Z,100933.34
2023-05-01T16:52:41.104Z,100933.44
2023-05-01T16:55:07.452Z,100932.25
2023-05-01T16:57:33.908Z,100931.38
2023-05-01T17:00:00.493Z,100928.59
2023-05-01T17:02:27.090Z,100927.56
2023-05-01T17:04:53.489Z,100926.03
2023-05-01T17:07:20.029Z,100925.59
2023-05-01T17:09:46.252Z,100926.34
2023-05-01T17:12:12.520Z,100923.13
2023-05-01T17:14:38.793Z,100917.88
2023-05-01T17:17:09.078Z,100920.19
2023-05-01T17:19:35.869Z,100919.31
2023-05-01T17:22:02.099Z,100929.94
2023-05-01T17:24:28.317Z,100922.81
2023-05-01T17:26:54.576Z,100924.22
2023-05-01T17:29:20.794Z,100918.97
2023-05-01T17:31:47.114Z,100918.97
2023-05-01T17:34:13.365Z,100920.06
2023-05-01T17:36:39.621Z,100909.94
2023-05-01T17:39:05.847Z,100909.25
2023-05-01T17:41:32.098Z,100913.50
2023-05-01T17:43:58.364Z,100917.13
2023-05-01T17:46:24.643Z,100920.06
2023-05-01T17:48:50.959Z,100912.75
2023-05-01T17:51:17.292Z,100914.94
2023-05-01T17:53:43.590Z,100912.84
2023-05-01T17:56:09.886Z,100903.13
2023-05-01T17:58:36.142Z,100901.13
2023-05-01T18:01:02.429Z,100903.28
2023-05-01T18:03:28.864Z,100898.28
2023-05-01T18:05:55.160Z,100897.44
2023-05-01T18:08:21.392Z,100894.25
2023-05-01T18:10:47.676Z,100888.94
2023-05-01T18:13:13.947Z,100891.22
2023-05-01T18:15:40.198Z,100888.78
2023-05-01T18:18:06.477Z,100893.84
2023-05-01T18:20:32.728Z,100889.06
2023-05-01T18:22:58.981Z,100889.31
2023-05-01T18:25:25.220Z,100892.41
2023-05-01T18:27:51.471Z,100895.25
2023-05-01T18:30:17.686Z,100894.66
2023-05-01T18:32:47.719Z,100891.25
2023-05-01T18:35:15.248Z,100893.19
2023-05-01T18:37:41.491Z,100890.00
2023-05-01T18:40:07.743Z,100897.25
2023-05-01T18:42:33.997Z,100895.63
2023-05-01T18:45:00.224Z,100893.00
2023-05-01T18:47:26.530Z,100891.16
2023-05-01T18:49:52.804Z,100882.50
2023-05-01T18:52:19.047Z,100880.94
2023-05-01T18:54:45.308Z,100882.97
2023-05-01T18:57:11.584Z,100882.38
2023-05-01T18:59:37.812Z,100884.16
2023-05-01T19:02:04.195Z,100889.66
2023-05-01T19:04:30.470Z,100884.41
2023-05-01T19:06:56.775Z,100887.34
2023-05-01T19:09:23.101Z,100884.13
2023-05-01T19:11:49.346Z,100896.28
2023-05-01T19:14:15.598Z,100888.59
2023-05-01T19:16:41.897Z,100892.97
2023-05-01T19:19:08.196Z,100891.28
2023-05-01T19:21:34.376Z,100894.25
2023-05-01T19:24:00.627Z,100897.03
2023-05-01T19:26:26.939Z,100894.47
2023-05-01T19:28:53.169Z,100897.09
2023-05-01T19:31:19.487Z,100892.97
2023-05-01T19:33:45.792Z,100902.63
2023-05-01T19:36:12.018Z,100899.84
2023-05-01T19:38:38.303Z,100899.91
2023-05-01T19:41:04.521Z,100895.53
2023-05-01T19:43:30.789Z,100895.59
2023-05-01T19:45:57.133Z,100900.03
2023-05-01T19:48:23.412Z,100903.59
2023-05-01T19:50:49.641Z,100913.22
2023-05-01T19:53:15.923Z,100910.22
2023-05-01T19:55:42.160Z,100906.56
2023-05-01T19:58:08.576Z,100917.22
2023-05-01T20:00:34.819Z,100918.13
2023-05-01T20:03:01.104Z,100917.13
2023-05-01T20:05:27.450Z,100924.94
2023-05-01T20:07:53.670Z,100919.06
2023-05-01T20:10:19.926Z,100921.69
2023-05-01T20:12:46.195Z,100920.75
2023-05-01T20:15:12.470Z,100912.75
2023-05-01T20:17:38.698Z,100911.03
2023-05-01T20:20:04.953Z,100916.25
2023-05-01T20:22:31.180Z,100910.06
2023-05-01T20:24:57.430Z,100916.28
2023-05-01T20:27:23.644Z,100918.13
2023-05-01T20:29:49.857Z,100909.44
2023-05-01T20:32:16.091Z,100905.78
2023-05-01T20:34:42.364Z,100919.75
2023-05-01T20:37:08.573Z,100916.25
2023-05-01T20:39:34.837Z,100912.75
2023-05-01T20:42:01.102Z,100914.41
2023-05-01T20:44:27.296Z,100911.91
2023-05-01T20:46:53.746Z,100909.19
2023-05-01T20:49:20.140Z,100911.00
2023-05-01T20:51:46.362Z,100914.25
2023-05-01T20:54:12.614Z,100916.72
2023-05-01T20:56:38.841Z,100912.31
2023-05-01T20:59:05.078Z,100917.50
2023-05-01T21:01:31.354Z,100914.91
2023-05-01T21:03:57.816Z,100912.31
2023-05-01T21:06:24.174Z,100908.78
2023-05-01T21:08:50.425Z,100903.53
2023-05-01T21:11:16.755Z,100904.25
2023-05-01T21:13:43.023Z,100901.63
2023-05-01T21:16:09.352Z,100899.19
2023-05-01T21:18:35.670Z,100901.03
2023-05-01T21:21:01.894Z,100896.75
2023-05-01T21:23:28.145Z,100894.91
2023-05-01T21:25:54.459Z,100888.78
2023-05-01T21:28:20.725Z,100894.03
2023-05-01T21:30:46.998Z,100893.97
2023-05-01T21:33:13.315Z,100887.88
2023-05-01T21:35:39.594Z,100886.94
2023-05-01T21:38:05.858Z,100882.47
2023-05-01T21:40:32.093Z,100885.09
2023-05-01T21:42:58.328Z,100886.94
2023-05-01T21:45:24.592Z,100886.16
2023-05-01T21:47:50.953Z,100891.34
2023-05-01T21:50:17.413Z,100871.22
2023-05-01T21:52:43.608Z,100863.41
2023-05-01T21:55:09.850Z,100872.16
2023-05-01T21:57:36.090Z,100866.75
2023-05-01T22:00:02.505Z,100872.69
2023-05-01T22:02:28.868Z,100862.94
2023-05-01T22:04:55.157Z,100860.44
2023-05-01T22:07:21.382Z,100866.63
2023-05-01T22:09:47.647Z,100865.69
2023-05-01T22:12:13.901Z,100865.69
2023-05-01T22:14:47.265Z,100865.84
2023-05-01T22:17:13.880Z,100861.72
2023-05-01T22:19:40.120Z,100865.28
2023-05-01T22:22:06.367Z,100871.38
2023-05-01T22:24:32.596Z,100861.78
2023-05-01T22:26:58.840Z,100861.22
2023-05-01T22:29:25.077Z,100858.75
2023-05-01T22:31:51.370Z,100860.59
2023-05-01T22:34:17.643Z,100859.91
2023-05-01T22:36:43.884Z,100852.06
2023-05-01T22:39:10.178Z,100853.13
2023-05-01T22:41:36.470Z,100850.59
2023-05-01T22:44:02.704Z,100845.50
2023-05-01T22:46:29.056Z,100843.78
2023-05-01T22:48:55.323Z,100842.88
2023-05-01T22:51:21.602Z,100846.41
2023-05-01T22:53:47.840Z,100840.19
2023-05-01T22:56:14.087Z,100841.94
2023-05-01T22:58:40.317Z,100844.84
2023-05-01T23:01:06.594Z,100839.78
2023-05-01T23:03:33.352Z,100835.44
2023-05-01T23:06:00.446Z,100831.94
2023-05-01T23:08:26.700Z,100825.03
2023-05-01T23:10:52.916Z,100824.31
2023-05-01T23:13:19.175Z,100832.34
2023-05-01T23:15:45.498Z,100819.16
2023-05-01T23:18:11.777Z,100818.31
2023-05-01T23:20:38.045Z,100810.44
2023-05-01T23:23:04.335Z,100816.56
2023-05-01T23:25:30.567Z,100806.97
2023-05-01T23:27:56.784Z,100815.59
2023-05-01T23:30:23.000Z,100799.03
2023-05-01T23:32:49.306Z,100804.25
2023-05-01T23:35:15.562Z,100808.69
2023-05-01T23:37:41.863Z,100808.69
2023-05-01T23:40:08.099Z,100806.06
2023-05-01T23:42:34.484Z,100804.50
2023-05-01T23:45:00.746Z,100802.75
2023-05-01T23:47:27.061Z,100796.66
2023-05-01T23:49:53.392Z,100782.84
2023-05-01T23:52:19.612Z,100790.22
2023-05-01T23:54:45.901Z,100791.75
2023-05-01T23:57:12.139Z,100797.00
2023-05-01T23:59:38.371Z,100792.47
